Terminal Aerodrome Forecast
Issued by NWS

Home | Current Version | Previous Version | Graphics & Text | Print | Product List | Glossary On
Versions: 1 2 3 4 5 6 7 8 9 10 11 12 13 14 15 16 17 18 19 20
000
FTUS43 KICT 041727
TAFCNU
TAF
KCNU 041727Z 0418/0518 31008KT P6SM BKN015
     FM042000 30005KT P6SM SCT050
     FM050700 VRB03KT 2SM BR BKN012
     FM051400 17005KT P6SM SCT050=

USA.gov is the U.S. government's official web portal to all federal, state and local government web resources and services.